Coastal Carolina

Airport
ICAO code: 
KEWN
Summary
ICAO Region: 
NAM
Territory: 
Location: 
New Bern, Craven County, North Carolina,
Serving: 
Craven County, Carteret County, Jones County, Pamlico County
Elevation: 
18 ft
Coordinates: 
Aerial View: 
35° 4' 23.969" N, 77° 2' 32.428" W
Airport WX: 
Tropical Revolving Storm
Metar
Observation
KEWN 270754Z AUTO 32005KT 10SM CLR 01/M05 A3005 RMK AO2 SLP175 T00111050
Station
New Bern, Craven County Regional Airport
Date/Time
2021-11-27 07:54:00
Wind direction
320°
Wind speed
05 kts
Lowest cloud amount
n/a
Temperature
1.1°C
Dew point
-5°C
Humidity
63%
Weather condition
n/a

Coastal Carolina Regional Airport is a public airport located 5 km southeast of central business district of New Bern, a town in Craven County, North Carolina, USA.

Climatology

Humid “subtropical” climate (Köppen climate classification Cfa) - characterized by hot, humid summers and cool winters. Significant amounts of precipitation occur in all seasons in most areas. Winter rainfall (and sometimes snowfall) is associated with large storms that the westerlies steer from west to east. Most summer rainfall occurs during thunderstorms and occasional tropical storms (hurricanes).

Runways

Designator Length Width Surface Rops
14/32 1219 46 ASPH-G Yes/Yes
4/22 1830 46 ASP Yes/Yes
Airport map: 
Aerial View: 

SKYbrary Partners:

Safety knowledge contributed by: